sensor_id;sensor_type;location;lat;lon;timestamp;temperature;humidity
7218;DHT22;3650;53.580;10.094;2024-02-16T00:02:00;13.80;99.90
7218;DHT22;3650;53.580;10.094;2024-02-16T00:04:27;13.80;99.90
7218;DHT22;3650;53.580;10.094;2024-02-16T00:06:54;13.70;99.90
7218;DHT22;3650;53.580;10.094;2024-02-16T00:09:21;13.80;99.90
7218;DHT22;3650;53.580;10.094;2024-02-16T00:11:49;13.70;99.90
7218;DHT22;3650;53.580;10.094;2024-02-16T00:14:18;13.70;99.90
7218;DHT22;3650;53.580;10.094;2024-02-16T00:16:45;13.70;99.90
7218;DHT22;3650;53.580;10.094;2024-02-16T00:19:12;13.70;99.90
7218;DHT22;3650;53.580;10.094;2024-02-16T00:21:38;13.70;99.90
7218;DHT22;3650;53.580;10.094;2024-02-16T00:24:07;13.70;99.90
7218;DHT22;3650;53.580;10.094;2024-02-16T00:26:34;13.70;99.90
7218;DHT22;3650;53.580;10.094;2024-02-16T00:29:02;13.70;99.90
7218;DHT22;3650;53.580;10.094;2024-02-16T00:31:30;13.70;99.90
7218;DHT22;3650;53.580;10.094;2024-02-16T00:33:57;13.70;99.90
7218;DHT22;3650;53.580;10.094;2024-02-16T00:36:23;13.70;99.90
7218;DHT22;3650;53.580;10.094;2024-02-16T00:38:50;13.70;99.90
7218;DHT22;3650;53.580;10.094;2024-02-16T00:41:19;13.70;99.90
7218;DHT22;3650;53.580;10.094;2024-02-16T00:43:46;13.60;99.90
7218;DHT22;3650;53.580;10.094;2024-02-16T00:46:14;13.60;99.90
7218;DHT22;3650;53.580;10.094;2024-02-16T00:48:40;13.60;99.90
7218;DHT22;3650;53.580;10.094;2024-02-16T00:51:07;13.60;99.90
7218;DHT22;3650;53.580;10.094;2024-02-16T00:53:34;13.60;99.90
7218;DHT22;3650;53.580;10.094;2024-02-16T00:56:01;13.60;99.90
7218;DHT22;3650;53.580;10.094;2024-02-16T00:58:28;13.60;99.90
7218;DHT22;3650;53.580;10.094;2024-02-16T01:00:55;13.60;99.90
7218;DHT22;3650;53.580;10.094;2024-02-16T01:03:23;13.60;99.90
7218;DHT22;3650;53.580;10.094;2024-02-16T01:05:51;13.60;99.90
7218;DHT22;3650;53.580;10.094;2024-02-16T01:08:18;13.60;99.90
7218;DHT22;3650;53.580;10.094;2024-02-16T01:10:45;13.60;99.90
7218;DHT22;3650;53.580;10.094;2024-02-16T01:13:13;13.60;99.90
7218;DHT22;3650;53.580;10.094;2024-02-16T01:15:39;13.60;99.90
7218;DHT22;3650;53.580;10.094;2024-02-16T01:18:07;13.60;99.90
7218;DHT22;3650;53.580;10.094;2024-02-16T01:20:35;13.60;99.90
7218;DHT22;3650;53.580;10.094;2024-02-16T01:23:02;13.50;99.90
7218;DHT22;3650;53.580;10.094;2024-02-16T01:25:30;13.50;99.90
7218;DHT22;3650;53.580;10.094;2024-02-16T01:27:57;13.60;99.90
7218;DHT22;3650;53.580;10.094;2024-02-16T01:30:24;13.50;99.90
7218;DHT22;3650;53.580;10.094;2024-02-16T01:32:51;13.50;99.90
7218;DHT22;3650;53.580;10.094;2024-02-16T01:35:18;13.50;99.90
7218;DHT22;3650;53.580;10.094;2024-02-16T01:37:46;13.50;99.90
7218;DHT22;3650;53.580;10.094;2024-02-16T01:40:13;13.50;99.90
7218;DHT22;3650;53.580;10.094;2024-02-16T01:42:42;13.50;99.90
7218;DHT22;3650;53.580;10.094;2024-02-16T01:45:09;13.50;99.90
7218;DHT22;3650;53.580;10.094;2024-02-16T01:47:37;13.50;99.90
7218;DHT22;3650;53.580;10.094;2024-02-16T01:50:05;13.50;99.90
7218;DHT22;3650;53.580;10.094;2024-02-16T01:52:33;13.50;99.90
7218;DHT22;3650;53.580;10.094;2024-02-16T01:55:03;13.50;99.90
7218;DHT22;3650;53.580;10.094;2024-02-16T01:57:30;13.50;99.90
7218;DHT22;3650;53.580;10.094;2024-02-16T01:59:58;13.40;99.90
7218;DHT22;3650;53.580;10.094;2024-02-16T02:02:24;13.50;99.90
7218;DHT22;3650;53.580;10.094;2024-02-16T02:04:51;13.40;99.90
7218;DHT22;3650;53.580;10.094;2024-02-16T02:07:18;13.40;99.90
7218;DHT22;3650;53.580;10.094;2024-02-16T02:09:47;13.40;99.90
7218;DHT22;3650;53.580;10.094;2024-02-16T02:12:15;13.40;99.90
7218;DHT22;3650;53.580;10.094;2024-02-16T02:14:42;13.40;99.90
7218;DHT22;3650;53.580;10.094;2024-02-16T02:17:09;13.40;99.90
7218;DHT22;3650;53.580;10.094;2024-02-16T02:19:36;13.40;99.90
7218;DHT22;3650;53.580;10.094;2024-02-16T02:22:03;13.40;99.90
7218;DHT22;3650;53.580;10.094;2024-02-16T02:24:31;13.30;99.90
7218;DHT22;3650;53.580;10.094;2024-02-16T02:26:57;13.30;99.90
7218;DHT22;3650;53.580;10.094;2024-02-16T02:29:24;13.30;99.90
7218;DHT22;3650;53.580;10.094;2024-02-16T02:31:51;13.30;99.90
7218;DHT22;3650;53.580;10.094;2024-02-16T02:34:18;13.40;99.90
7218;DHT22;3650;53.580;10.094;2024-02-16T02:36:46;13.30;99.90
7218;DHT22;3650;53.580;10.094;2024-02-16T02:39:13;13.30;99.90
7218;DHT22;3650;53.580;10.094;2024-02-16T02:41:41;13.30;99.90
7218;DHT22;3650;53.580;10.094;2024-02-16T02:44:08;13.30;99.90
7218;DHT22;3650;53.580;10.094;2024-02-16T02:46:36;13.40;99.90
7218;DHT22;3650;53.580;10.094;2024-02-16T02:49:03;13.30;99.90
7218;DHT22;3650;53.580;10.094;2024-02-16T02:51:30;13.30;99.90
7218;DHT22;3650;53.580;10.094;2024-02-16T02:53:57;13.30;99.90
7218;DHT22;3650;53.580;10.094;2024-02-16T02:56:23;13.30;99.90
7218;DHT22;3650;53.580;10.094;2024-02-16T02:58:51;13.30;99.90
7218;DHT22;3650;53.580;10.094;2024-02-16T03:01:18;13.30;99.90
7218;DHT22;3650;53.580;10.094;2024-02-16T03:03:46;13.30;99.90
7218;DHT22;3650;53.580;10.094;2024-02-16T03:06:16;13.30;99.90
7218;DHT22;3650;53.580;10.094;2024-02-16T03:08:43;13.30;99.90
7218;DHT22;3650;53.580;10.094;2024-02-16T03:11:10;13.30;99.90
7218;DHT22;3650;53.580;10.094;2024-02-16T03:13:37;13.30;99.90
7218;DHT22;3650;53.580;10.094;2024-02-16T03:16:05;13.30;99.90
7218;DHT22;3650;53.580;10.094;2024-02-16T03:18:33;13.30;99.90
7218;DHT22;3650;53.580;10.094;2024-02-16T03:21:00;13.30;99.90
7218;DHT22;3650;53.580;10.094;2024-02-16T03:23:28;13.30;99.90
7218;DHT22;3650;53.580;10.094;2024-02-16T03:25:54;13.30;99.90
7218;DHT22;3650;53.580;10.094;2024-02-16T03:28:21;13.30;99.90
7218;DHT22;3650;53.580;10.094;2024-02-16T03:30:48;13.30;99.90
7218;DHT22;3650;53.580;10.094;2024-02-16T03:33:16;13.30;99.90
7218;DHT22;3650;53.580;10.094;2024-02-16T03:35:43;13.30;99.90
7218;DHT22;3650;53.580;10.094;2024-02-16T03:38:10;13.30;99.90
7218;DHT22;3650;53.580;10.094;2024-02-16T03:40:36;13.30;99.90
7218;DHT22;3650;53.580;10.094;2024-02-16T03:43:03;13.30;99.90
7218;DHT22;3650;53.580;10.094;2024-02-16T03:45:31;13.30;99.90
7218;DHT22;3650;53.580;10.094;2024-02-16T03:47:58;13.30;99.90
7218;DHT22;3650;53.580;10.094;2024-02-16T03:50:26;13.30;99.90
7218;DHT22;3650;53.580;10.094;2024-02-16T03:52:53;13.30;99.90
7218;DHT22;3650;53.580;10.094;2024-02-16T03:55:20;13.30;99.90
7218;DHT22;3650;53.580;10.094;2024-02-16T03:57:47;13.30;99.90
7218;DHT22;3650;53.580;10.094;2024-02-16T04:00:14;13.30;99.90
7218;DHT22;3650;53.580;10.094;2024-02-16T04:02:41;13.30;99.90
7218;DHT22;3650;53.580;10.094;2024-02-16T04:05:08;13.30;99.90
7218;DHT22;3650;53.580;10.094;2024-02-16T04:07:36;13.30;99.90
7218;DHT22;3650;53.580;10.094;2024-02-16T04:10:03;13.30;99.90
7218;DHT22;3650;53.580;10.094;2024-02-16T04:12:30;13.30;99.90
7218;DHT22;3650;53.580;10.094;2024-02-16T04:14:57;13.30;99.90
7218;DHT22;3650;53.580;10.094;2024-02-16T04:17:24;13.30;99.90
7218;DHT22;3650;53.580;10.094;2024-02-16T04:19:51;13.30;99.90
7218;DHT22;3650;53.580;10.094;2024-02-16T04:22:17;13.30;99.90
7218;DHT22;3650;53.580;10.094;2024-02-16T04:24:46;13.30;99.90
7218;DHT22;3650;53.580;10.094;2024-02-16T04:27:12;13.30;99.90
7218;DHT22;3650;53.580;10.094;2024-02-16T04:29:39;13.30;99.90
7218;DHT22;3650;53.580;10.094;2024-02-16T04:32:06;13.30;99.90
7218;DHT22;3650;53.580;10.094;2024-02-16T04:34:33;13.30;99.90
7218;DHT22;3650;53.580;10.094;2024-02-16T04:37:00;13.30;99.90
7218;DHT22;3650;53.580;10.094;2024-02-16T04:39:27;13.30;99.90
7218;DHT22;3650;53.580;10.094;2024-02-16T04:41:57;13.30;99.90
7218;DHT22;3650;53.580;10.094;2024-02-16T04:44:24;13.30;99.90
7218;DHT22;3650;53.580;10.094;2024-02-16T04:46:51;13.30;99.90
7218;DHT22;3650;53.580;10.094;2024-02-16T04:49:18;13.30;99.90
7218;DHT22;3650;53.580;10.094;2024-02-16T04:51:46;13.30;99.90
7218;DHT22;3650;53.580;10.094;2024-02-16T04:54:13;13.30;99.90
7218;DHT22;3650;53.580;10.094;2024-02-16T04:56:40;13.30;99.90
7218;DHT22;3650;53.580;10.094;2024-02-16T04:59:08;13.30;99.90
7218;DHT22;3650;53.580;10.094;2024-02-16T05:01:35;13.30;99.90
7218;DHT22;3650;53.580;10.094;2024-02-16T05:04:01;13.30;99.90
7218;DHT22;3650;53.580;10.094;2024-02-16T05:06:28;13.30;99.90
7218;DHT22;3650;53.580;10.094;2024-02-16T05:08:56;13.30;99.90
7218;DHT22;3650;53.580;10.094;2024-02-16T05:11:23;13.30;99.90
7218;DHT22;3650;53.580;10.094;2024-02-16T05:13:51;13.30;99.90
7218;DHT22;3650;53.580;10.094;2024-02-16T05:16:19;13.30;99.90
7218;DHT22;3650;53.580;10.094;2024-02-16T05:18:46;13.20;99.90
7218;DHT22;3650;53.580;10.094;2024-02-16T05:21:13;13.20;99.90
7218;DHT22;3650;53.580;10.094;2024-02-16T05:23:39;13.20;99.90
7218;DHT22;3650;53.580;10.094;2024-02-16T05:26:06;13.20;99.90
7218;DHT22;3650;53.580;10.094;2024-02-16T05:28:33;13.20;99.90
7218;DHT22;3650;53.580;10.094;2024-02-16T05:31:12;13.20;99.90
7218;DHT22;3650;53.580;10.094;2024-02-16T05:33:42;13.20;99.90
7218;DHT22;3650;53.580;10.094;2024-02-16T05:36:10;13.20;99.90
7218;DHT22;3650;53.580;10.094;2024-02-16T05:38:37;13.20;99.90
7218;DHT22;3650;53.580;10.094;2024-02-16T05:41:08;13.20;99.90
7218;DHT22;3650;53.580;10.094;2024-02-16T05:43:36;13.20;99.90
7218;DHT22;3650;53.580;10.094;2024-02-16T05:46:04;13.20;99.90
7218;DHT22;3650;53.580;10.094;2024-02-16T05:48:32;13.20;99.90
7218;DHT22;3650;53.580;10.094;2024-02-16T05:51:01;13.20;99.90
7218;DHT22;3650;53.580;10.094;2024-02-16T05:53:28;13.20;99.90
7218;DHT22;3650;53.580;10.094;2024-02-16T05:55:55;13.20;99.90
7218;DHT22;3650;53.580;10.094;2024-02-16T05:58:22;13.20;99.90
7218;DHT22;3650;53.580;10.094;2024-02-16T06:00:49;13.20;99.90
7218;DHT22;3650;53.580;10.094;2024-02-16T06:03:16;13.20;99.90
7218;DHT22;3650;53.580;10.094;2024-02-16T06:05:43;13.20;99.90
7218;DHT22;3650;53.580;10.094;2024-02-16T06:08:12;13.20;99.90
7218;DHT22;3650;53.580;10.094;2024-02-16T06:10:39;13.10;99.90
7218;DHT22;3650;53.580;10.094;2024-02-16T06:13:07;13.20;99.90
7218;DHT22;3650;53.580;10.094;2024-02-16T06:15:34;13.20;99.90
7218;DHT22;3650;53.580;10.094;2024-02-16T06:18:03;13.20;99.90
7218;DHT22;3650;53.580;10.094;2024-02-16T06:20:29;13.20;99.90
7218;DHT22;3650;53.580;10.094;2024-02-16T06:22:56;13.20;99.90
7218;DHT22;3650;53.580;10.094;2024-02-16T06:25:24;13.10;99.90
7218;DHT22;3650;53.580;10.094;2024-02-16T06:27:51;13.20;99.90
7218;DHT22;3650;53.580;10.094;2024-02-16T06:30:18;13.10;99.90
7218;DHT22;3650;53.580;10.094;2024-02-16T06:32:45;13.10;99.90
7218;DHT22;3650;53.580;10.094;2024-02-16T06:35:11;13.10;99.90
7218;DHT22;3650;53.580;10.094;2024-02-16T06:37:38;13.10;99.90
7218;DHT22;3650;53.580;10.094;2024-02-16T06:40:06;13.20;99.90
7218;DHT22;3650;53.580;10.094;2024-02-16T06:42:37;13.10;99.90
7218;DHT22;3650;53.580;10.094;2024-02-16T06:45:04;13.10;99.90
7218;DHT22;3650;53.580;10.094;2024-02-16T06:47:31;13.10;99.90
7218;DHT22;3650;53.580;10.094;2024-02-16T06:49:58;13.10;99.90
7218;DHT22;3650;53.580;10.094;2024-02-16T06:52:25;13.10;99.90
7218;DHT22;3650;53.580;10.094;2024-02-16T06:54:52;13.10;99.90
7218;DHT22;3650;53.580;10.094;2024-02-16T06:57:18;13.10;99.90
7218;DHT22;3650;53.580;10.094;2024-02-16T06:59:46;13.10;99.90
7218;DHT22;3650;53.580;10.094;2024-02-16T07:02:14;13.10;99.90
7218;DHT22;3650;53.580;10.094;2024-02-16T07:04:43;13.10;99.90
7218;DHT22;3650;53.580;10.094;2024-02-16T07:07:11;13.10;99.90
7218;DHT22;3650;53.580;10.094;2024-02-16T07:09:37;13.10;99.90
7218;DHT22;3650;53.580;10.094;2024-02-16T07:12:05;13.00;99.90
7218;DHT22;3650;53.580;10.094;2024-02-16T07:14:33;13.00;99.90
7218;DHT22;3650;53.580;10.094;2024-02-16T07:17:01;13.00;99.90
7218;DHT22;3650;53.580;10.094;2024-02-16T07:19:28;13.00;99.90
7218;DHT22;3650;53.580;10.094;2024-02-16T07:21:55;13.00;99.90
7218;DHT22;3650;53.580;10.094;2024-02-16T07:24:21;13.00;99.90
7218;DHT22;3650;53.580;10.094;2024-02-16T07:26:48;13.00;99.90
7218;DHT22;3650;53.580;10.094;2024-02-16T07:29:15;13.00;99.90
7218;DHT22;3650;53.580;10.094;2024-02-16T07:31:42;13.00;99.90
7218;DHT22;3650;53.580;10.094;2024-02-16T07:34:10;13.00;99.90
7218;DHT22;3650;53.580;10.094;2024-02-16T07:36:37;13.10;99.90
7218;DHT22;3650;53.580;10.094;2024-02-16T07:39:04;13.10;99.90
7218;DHT22;3650;53.580;10.094;2024-02-16T07:41:31;13.00;99.90
7218;DHT22;3650;53.580;10.094;2024-02-16T07:43:58;13.00;99.90
7218;DHT22;3650;53.580;10.094;2024-02-16T07:46:25;13.10;99.90
7218;DHT22;3650;53.580;10.094;2024-02-16T07:48:51;13.00;99.90
7218;DHT22;3650;53.580;10.094;2024-02-16T07:51:20;13.10;99.90
7218;DHT22;3650;53.580;10.094;2024-02-16T07:53:47;13.00;99.90
7218;DHT22;3650;53.580;10.094;2024-02-16T07:56:14;13.00;99.90
7218;DHT22;3650;53.580;10.094;2024-02-16T07:58:42;13.10;99.90
7218;DHT22;3650;53.580;10.094;2024-02-16T08:01:11;13.10;99.90
7218;DHT22;3650;53.580;10.094;2024-02-16T08:03:40;13.10;99.90
7218;DHT22;3650;53.580;10.094;2024-02-16T08:06:08;13.10;99.90
7218;DHT22;3650;53.580;10.094;2024-02-16T08:08:36;13.10;99.90
7218;DHT22;3650;53.580;10.094;2024-02-16T08:11:03;13.10;99.90
7218;DHT22;3650;53.580;10.094;2024-02-16T08:13:30;13.10;99.90
7218;DHT22;3650;53.580;10.094;2024-02-16T08:15:57;13.20;99.90
7218;DHT22;3650;53.580;10.094;2024-02-16T08:18:24;13.20;99.90
7218;DHT22;3650;53.580;10.094;2024-02-16T08:20:51;13.20;99.90
7218;DHT22;3650;53.580;10.094;2024-02-16T08:23:18;13.20;99.90
7218;DHT22;3650;53.580;10.094;2024-02-16T08:25:47;13.20;99.90
7218;DHT22;3650;53.580;10.094;2024-02-16T08:28:14;13.20;99.90
7218;DHT22;3650;53.580;10.094;2024-02-16T08:30:41;13.20;99.90
7218;DHT22;3650;53.580;10.094;2024-02-16T08:33:09;13.20;99.90
7218;DHT22;3650;53.580;10.094;2024-02-16T08:35:36;13.20;99.80
7218;DHT22;3650;53.580;10.094;2024-02-16T08:38:03;13.30;99.80
7218;DHT22;3650;53.580;10.094;2024-02-16T08:40:30;13.30;99.80
7218;DHT22;3650;53.580;10.094;2024-02-16T08:42:58;13.30;99.80
7218;DHT22;3650;53.580;10.094;2024-02-16T08:45:27;13.30;99.50
7218;DHT22;3650;53.580;10.094;2024-02-16T08:47:54;13.30;99.30
7218;DHT22;3650;53.580;10.094;2024-02-16T08:50:22;13.30;99.30
7218;DHT22;3650;53.580;10.094;2024-02-16T08:52:49;13.30;99.30
7218;DHT22;3650;53.580;10.094;2024-02-16T08:55:17;13.30;99.70
7218;DHT22;3650;53.580;10.094;2024-02-16T08:57:44;13.30;99.30
7218;DHT22;3650;53.580;10.094;2024-02-16T09:00:13;13.40;99.30
7218;DHT22;3650;53.580;10.094;2024-02-16T09:02:41;13.40;99.30
7218;DHT22;3650;53.580;10.094;2024-02-16T09:05:08;13.30;99.30
7218;DHT22;3650;53.580;10.094;2024-02-16T09:07:36;13.30;99.30
7218;DHT22;3650;53.580;10.094;2024-02-16T09:10:03;13.40;99.30
7218;DHT22;3650;53.580;10.094;2024-02-16T09:12:30;13.40;99.30
7218;DHT22;3650;53.580;10.094;2024-02-16T09:14:57;13.40;99.30
7218;DHT22;3650;53.580;10.094;2024-02-16T09:17:25;13.40;99.30
7218;DHT22;3650;53.580;10.094;2024-02-16T09:19:52;13.40;99.30
7218;DHT22;3650;53.580;10.094;2024-02-16T09:22:19;13.40;99.40
7218;DHT22;3650;53.580;10.094;2024-02-16T09:24:46;13.40;99.70
7218;DHT22;3650;53.580;10.094;2024-02-16T09:27:13;13.50;99.80
7218;DHT22;3650;53.580;10.094;2024-02-16T09:29:40;13.50;99.80
7218;DHT22;3650;53.580;10.094;2024-02-16T09:32:06;13.40;99.80
7218;DHT22;3650;53.580;10.094;2024-02-16T09:34:35;13.50;99.80
7218;DHT22;3650;53.580;10.094;2024-02-16T09:37:02;13.50;99.90
7218;DHT22;3650;53.580;10.094;2024-02-16T09:39:29;13.50;99.80
7218;DHT22;3650;53.580;10.094;2024-02-16T09:41:56;13.50;99.70
7218;DHT22;3650;53.580;10.094;2024-02-16T09:44:23;13.50;99.70
7218;DHT22;3650;53.580;10.094;2024-02-16T09:46:52;13.50;99.70
7218;DHT22;3650;53.580;10.094;2024-02-16T09:49:20;13.50;99.80
7218;DHT22;3650;53.580;10.094;2024-02-16T09:51:48;13.50;99.90
7218;DHT22;3650;53.580;10.094;2024-02-16T09:54:15;13.50;99.90
7218;DHT22;3650;53.580;10.094;2024-02-16T09:56:42;13.60;99.90
7218;DHT22;3650;53.580;10.094;2024-02-16T09:59:10;13.60;99.90
7218;DHT22;3650;53.580;10.094;2024-02-16T10:01:37;13.60;99.90
7218;DHT22;3650;53.580;10.094;2024-02-16T10:04:07;13.60;99.90
7218;DHT22;3650;53.580;10.094;2024-02-16T10:06:46;13.60;99.90
7218;DHT22;3650;53.580;10.094;2024-02-16T10:09:23;13.60;99.90
7218;DHT22;3650;53.580;10.094;2024-02-16T10:11:50;13.60;99.90
7218;DHT22;3650;53.580;10.094;2024-02-16T10:14:18;13.60;99.80
7218;DHT22;3650;53.580;10.094;2024-02-16T10:16:45;13.70;99.90
7218;DHT22;3650;53.580;10.094;2024-02-16T10:19:14;13.70;99.90
7218;DHT22;3650;53.580;10.094;2024-02-16T10:21:41;13.70;99.90
7218;DHT22;3650;53.580;10.094;2024-02-16T10:24:09;13.70;99.90
7218;DHT22;3650;53.580;10.094;2024-02-16T10:26:38;13.80;99.90
7218;DHT22;3650;53.580;10.094;2024-02-16T10:29:06;13.80;99.90
7218;DHT22;3650;53.580;10.094;2024-02-16T10:31:33;13.80;99.90
7218;DHT22;3650;53.580;10.094;2024-02-16T10:34:02;13.80;99.90
7218;DHT22;3650;53.580;10.094;2024-02-16T10:36:32;13.90;99.90
7218;DHT22;3650;53.580;10.094;2024-02-16T10:39:00;13.90;99.90
7218;DHT22;3650;53.580;10.094;2024-02-16T10:41:32;14.00;99.90
7218;DHT22;3650;53.580;10.094;2024-02-16T10:44:02;14.00;99.90
7218;DHT22;3650;53.580;10.094;2024-02-16T10:46:29;14.00;99.90
7218;DHT22;3650;53.580;10.094;2024-02-16T10:48:57;14.00;99.90
7218;DHT22;3650;53.580;10.094;2024-02-16T10:51:28;14.10;99.90
7218;DHT22;3650;53.580;10.094;2024-02-16T10:53:57;14.10;99.70
7218;DHT22;3650;53.580;10.094;2024-02-16T10:56:33;14.10;99.50
7218;DHT22;3650;53.580;10.094;2024-02-16T10:59:02;14.20;99.60
7218;DHT22;3650;53.580;10.094;2024-02-16T11:01:32;14.20;99.60
7218;DHT22;3650;53.580;10.094;2024-02-16T11:04:01;14.20;99.50
7218;DHT22;3650;53.580;10.094;2024-02-16T11:06:28;14.20;99.30
7218;DHT22;3650;53.580;10.094;2024-02-16T11:09:01;14.20;99.30
7218;DHT22;3650;53.580;10.094;2024-02-16T11:11:33;14.30;99.20
7218;DHT22;3650;53.580;10.094;2024-02-16T11:14:02;14.40;99.10
7218;DHT22;3650;53.580;10.094;2024-02-16T11:16:30;14.40;99.10
7218;DHT22;3650;53.580;10.094;2024-02-16T11:18:57;14.40;99.00
7218;DHT22;3650;53.580;10.094;2024-02-16T11:21:24;14.40;99.00
7218;DHT22;3650;53.580;10.094;2024-02-16T11:23:51;14.50;99.00
7218;DHT22;3650;53.580;10.094;2024-02-16T11:26:18;14.50;98.80
7218;DHT22;3650;53.580;10.094;2024-02-16T11:28:45;14.50;98.70
7218;DHT22;3650;53.580;10.094;2024-02-16T11:31:13;14.50;98.60
7218;DHT22;3650;53.580;10.094;2024-02-16T11:33:43;14.50;98.40
7218;DHT22;3650;53.580;10.094;2024-02-16T11:36:10;14.60;98.30
7218;DHT22;3650;53.580;10.094;2024-02-16T11:38:37;14.60;98.20
7218;DHT22;3650;53.580;10.094;2024-02-16T11:41:06;14.70;98.10
7218;DHT22;3650;53.580;10.094;2024-02-16T11:43:34;14.70;97.90
7218;DHT22;3650;53.580;10.094;2024-02-16T11:46:11;14.70;97.30
7218;DHT22;3650;53.580;10.094;2024-02-16T11:48:40;14.70;96.80
7218;DHT22;3650;53.580;10.094;2024-02-16T11:51:07;14.80;96.40
7218;DHT22;3650;53.580;10.094;2024-02-16T11:53:34;14.80;96.40
7218;DHT22;3650;53.580;10.094;2024-02-16T11:56:01;14.80;96.30
7218;DHT22;3650;53.580;10.094;2024-02-16T11:58:27;14.80;96.20
7218;DHT22;3650;53.580;10.094;2024-02-16T12:00:56;14.90;96.00
7218;DHT22;3650;53.580;10.094;2024-02-16T12:03:25;14.90;95.70
7218;DHT22;3650;53.580;10.094;2024-02-16T12:05:55;14.90;95.60
7218;DHT22;3650;53.580;10.094;2024-02-16T12:08:23;14.90;95.20
7218;DHT22;3650;53.580;10.094;2024-02-16T12:10:51;14.90;94.70
7218;DHT22;3650;53.580;10.094;2024-02-16T12:13:18;15.00;94.70
7218;DHT22;3650;53.580;10.094;2024-02-16T12:15:46;15.00;94.80
7218;DHT22;3650;53.580;10.094;2024-02-16T12:18:19;15.00;94.80
7218;DHT22;3650;53.580;10.094;2024-02-16T12:20:58;15.00;94.60
7218;DHT22;3650;53.580;10.094;2024-02-16T12:23:25;15.10;94.50
7218;DHT22;3650;53.580;10.094;2024-02-16T12:25:52;15.10;94.30
7218;DHT22;3650;53.580;10.094;2024-02-16T12:28:19;15.10;94.20
7218;DHT22;3650;53.580;10.094;2024-02-16T12:30:47;15.10;94.10
7218;DHT22;3650;53.580;10.094;2024-02-16T12:33:14;15.10;94.10
7218;DHT22;3650;53.580;10.094;2024-02-16T12:35:41;15.20;94.10
7218;DHT22;3650;53.580;10.094;2024-02-16T12:38:09;15.20;94.20
7218;DHT22;3650;53.580;10.094;2024-02-16T12:40:36;15.20;94.00
7218;DHT22;3650;53.580;10.094;2024-02-16T12:43:03;15.20;94.00
7218;DHT22;3650;53.580;10.094;2024-02-16T12:45:30;15.20;94.00
7218;DHT22;3650;53.580;10.094;2024-02-16T12:47:57;15.30;93.90
7218;DHT22;3650;53.580;10.094;2024-02-16T12:50:24;15.30;93.80
7218;DHT22;3650;53.580;10.094;2024-02-16T12:52:51;15.30;93.70
7218;DHT22;3650;53.580;10.094;2024-02-16T12:55:19;15.20;93.60
7218;DHT22;3650;53.580;10.094;2024-02-16T12:57:46;15.20;93.70
7218;DHT22;3650;53.580;10.094;2024-02-16T13:00:13;15.30;93.80
7218;DHT22;3650;53.580;10.094;2024-02-16T13:02:40;15.30;93.90
7218;DHT22;3650;53.580;10.094;2024-02-16T13:05:07;15.30;93.70
7218;DHT22;3650;53.580;10.094;2024-02-16T13:07:36;15.30;93.60
7218;DHT22;3650;53.580;10.094;2024-02-16T13:10:05;15.40;93.70
7218;DHT22;3650;53.580;10.094;2024-02-16T13:12:34;15.30;93.70
7218;DHT22;3650;53.580;10.094;2024-02-16T13:15:02;15.40;94.00
7218;DHT22;3650;53.580;10.094;2024-02-16T13:17:30;15.40;94.10
7218;DHT22;3650;53.580;10.094;2024-02-16T13:19:58;15.40;94.10
7218;DHT22;3650;53.580;10.094;2024-02-16T13:22:32;15.40;94.30
7218;DHT22;3650;53.580;10.094;2024-02-16T13:24:59;15.40;94.20
7218;DHT22;3650;53.580;10.094;2024-02-16T13:27:26;15.40;94.10
7218;DHT22;3650;53.580;10.094;2024-02-16T13:29:54;15.40;94.20
7218;DHT22;3650;53.580;10.094;2024-02-16T13:32:21;15.40;94.30
7218;DHT22;3650;53.580;10.094;2024-02-16T13:34:48;15.40;94.30
7218;DHT22;3650;53.580;10.094;2024-02-16T13:37:15;15.40;94.30
7218;DHT22;3650;53.580;10.094;2024-02-16T13:39:41;15.40;94.20
7218;DHT22;3650;53.580;10.094;2024-02-16T13:42:08;15.40;94.20
7218;DHT22;3650;53.580;10.094;2024-02-16T13:44:36;15.40;94.10
7218;DHT22;3650;53.580;10.094;2024-02-16T13:47:05;15.40;94.10
7218;DHT22;3650;53.580;10.094;2024-02-16T13:49:32;15.50;94.10
7218;DHT22;3650;53.580;10.094;2024-02-16T13:51:58;15.50;94.10
7218;DHT22;3650;53.580;10.094;2024-02-16T13:54:26;15.50;93.90
7218;DHT22;3650;53.580;10.094;2024-02-16T13:56:52;15.50;94.00
7218;DHT22;3650;53.580;10.094;2024-02-16T13:59:19;15.50;94.10
7218;DHT22;3650;53.580;10.094;2024-02-16T14:01:46;15.50;94.20
7218;DHT22;3650;53.580;10.094;2024-02-16T14:04:15;15.50;94.30
7218;DHT22;3650;53.580;10.094;2024-02-16T14:06:41;15.40;94.30
7218;DHT22;3650;53.580;10.094;2024-02-16T14:09:08;15.50;94.40
7218;DHT22;3650;53.580;10.094;2024-02-16T14:11:39;15.40;94.50
7218;DHT22;3650;53.580;10.094;2024-02-16T14:14:07;15.50;94.80
7218;DHT22;3650;53.580;10.094;2024-02-16T14:16:34;15.50;94.70
7218;DHT22;3650;53.580;10.094;2024-02-16T14:19:01;15.40;94.60
7218;DHT22;3650;53.580;10.094;2024-02-16T14:21:29;15.50;94.70
7218;DHT22;3650;53.580;10.094;2024-02-16T14:23:56;15.50;94.60
7218;DHT22;3650;53.580;10.094;2024-02-16T14:26:23;15.50;94.70
7218;DHT22;3650;53.580;10.094;2024-02-16T14:28:50;15.50;94.80
7218;DHT22;3650;53.580;10.094;2024-02-16T14:31:16;15.50;94.70
7218;DHT22;3650;53.580;10.094;2024-02-16T14:33:46;15.50;94.70
7218;DHT22;3650;53.580;10.094;2024-02-16T14:36:13;15.40;94.60
7218;DHT22;3650;53.580;10.094;2024-02-16T14:38:41;15.50;94.70
7218;DHT22;3650;53.580;10.094;2024-02-16T14:41:08;15.50;94.70
7218;DHT22;3650;53.580;10.094;2024-02-16T14:43:35;15.50;94.80
7218;DHT22;3650;53.580;10.094;2024-02-16T14:46:02;15.50;94.80
7218;DHT22;3650;53.580;10.094;2024-02-16T14:48:30;15.50;94.90
7218;DHT22;3650;53.580;10.094;2024-02-16T14:50:57;15.50;95.00
7218;DHT22;3650;53.580;10.094;2024-02-16T14:53:24;15.50;95.20
7218;DHT22;3650;53.580;10.094;2024-02-16T14:55:52;15.50;95.20
7218;DHT22;3650;53.580;10.094;2024-02-16T14:58:19;15.50;95.40
7218;DHT22;3650;53.580;10.094;2024-02-16T15:00:46;15.50;95.50
7218;DHT22;3650;53.580;10.094;2024-02-16T15:03:15;15.50;95.60
7218;DHT22;3650;53.580;10.094;2024-02-16T15:05:43;15.50;95.60
7218;DHT22;3650;53.580;10.094;2024-02-16T15:08:10;15.50;95.90
7218;DHT22;3650;53.580;10.094;2024-02-16T15:10:37;15.40;95.80
7218;DHT22;3650;53.580;10.094;2024-02-16T15:13:05;15.40;96.00
7218;DHT22;3650;53.580;10.094;2024-02-16T15:15:32;15.50;96.40
7218;DHT22;3650;53.580;10.094;2024-02-16T15:17:59;15.40;96.60
7218;DHT22;3650;53.580;10.094;2024-02-16T15:20:26;15.40;97.20
7218;DHT22;3650;53.580;10.094;2024-02-16T15:22:53;15.40;97.30
7218;DHT22;3650;53.580;10.094;2024-02-16T15:25:20;15.40;97.50
7218;DHT22;3650;53.580;10.094;2024-02-16T15:27:47;15.40;97.50
7218;DHT22;3650;53.580;10.094;2024-02-16T15:30:16;15.40;98.00
7218;DHT22;3650;53.580;10.094;2024-02-16T15:32:42;15.40;98.00
7218;DHT22;3650;53.580;10.094;2024-02-16T15:35:09;15.30;98.10
7218;DHT22;3650;53.580;10.094;2024-02-16T15:37:36;15.40;98.20
7218;DHT22;3650;53.580;10.094;2024-02-16T15:40:04;15.40;98.40
7218;DHT22;3650;53.580;10.094;2024-02-16T15:42:31;15.40;98.80
7218;DHT22;3650;53.580;10.094;2024-02-16T15:45:02;15.30;98.70
7218;DHT22;3650;53.580;10.094;2024-02-16T15:47:31;15.30;98.70